Time;durP1;ratioP1;P1;durP2;ratioP2;P2;SDS_P1;SDS_P2;PMS_P1;PMS_P2;Temp;Humidity;BMP_temperature;BMP_pressure;BME280_temperature;BME280_humidity;BME280_pressure;Samples;Min_cycle;Max_cycle;Signal;HPM_P1;HPM_P2
2023/12/08 00:00:26;;;;;;;1999.90;999.90;;;-2.90;94.20;;;;;;5067417;28;20057;-77
2023/12/08 00:02:52;;;;;;;1999.90;999.90;;;-2.70;94.20;;;;;;5067120;28;20067;-76
2023/12/08 00:05:18;;;;;;;1999.90;999.90;;;-2.70;94.00;;;;;;5069041;28;20066;-76
2023/12/08 00:07:43;;;;;;;1999.90;999.90;;;-2.70;94.00;;;;;;5074003;28;20589;-76
2023/12/08 00:10:09;;;;;;;1999.90;999.90;;;-2.70;94.00;;;;;;5069889;28;20511;-76
2023/12/08 00:12:35;;;;;;;1999.90;999.90;;;-2.70;93.90;;;;;;5062949;28;20024;-76
2023/12/08 00:15:00;;;;;;;1999.90;999.90;;;-2.70;94.00;;;;;;5070939;28;20517;-76
2023/12/08 00:17:27;;;;;;;1999.90;999.90;;;-2.80;93.80;;;;;;5072961;28;20032;-76
2023/12/08 00:19:53;;;;;;;1999.90;999.90;;;-2.70;93.70;;;;;;5067726;28;20115;-77
2023/12/08 00:22:19;;;;;;;1999.90;999.90;;;-2.60;94.00;;;;;;5053996;28;20135;-77
2023/12/08 00:24:44;;;;;;;1999.90;999.90;;;-2.80;94.00;;;;;;5075221;28;20047;-76
2023/12/08 00:27:10;;;;;;;1999.90;999.90;;;-2.70;94.30;;;;;;5074148;28;20106;-77
2023/12/08 00:29:35;;;;;;;1999.90;999.90;;;-2.70;94.40;;;;;;5073047;28;20130;-77
2023/12/08 00:32:01;;;;;;;1999.90;999.90;;;-2.70;94.20;;;;;;5077497;28;20027;-76
2023/12/08 00:34:27;;;;;;;1999.90;999.90;;;-2.60;94.20;;;;;;5075999;28;20020;-76
2023/12/08 00:36:52;;;;;;;1999.90;999.90;;;-2.60;94.10;;;;;;5077758;28;20501;-77
2023/12/08 00:39:18;;;;;;;1999.90;999.90;;;-2.70;94.10;;;;;;5073459;28;20032;-76
2023/12/08 00:41:44;;;;;;;1999.90;999.90;;;-2.70;94.00;;;;;;5074514;28;20063;-76
2023/12/08 00:44:09;;;;;;;1999.90;999.90;;;-2.70;94.10;;;;;;5072303;28;20047;-77
2023/12/08 00:46:35;;;;;;;1999.90;999.90;;;-2.70;94.20;;;;;;5074265;28;20162;-76
2023/12/08 00:49:01;;;;;;;1999.90;999.90;;;-2.70;94.40;;;;;;5074512;28;20755;-75
2023/12/08 00:51:26;;;;;;;1999.90;999.90;;;-2.70;94.30;;;;;;5069873;28;20043;-76
2023/12/08 00:53:52;;;;;;;1999.90;999.90;;;-2.50;94.50;;;;;;5106719;27;20658;-76
2023/12/08 00:56:18;;;;;;;1999.90;999.90;;;-2.50;94.00;;;;;;5076555;28;20021;-76
2023/12/08 00:58:43;;;;;;;1999.90;999.90;;;-2.50;94.20;;;;;;5071767;28;20130;-77
2023/12/08 01:01:09;;;;;;;1999.90;999.90;;;-2.60;94.10;;;;;;5055139;28;20047;-77
2023/12/08 01:03:35;;;;;;;1999.90;999.90;;;-2.50;94.20;;;;;;5073312;28;20520;-77
2023/12/08 01:06:00;;;;;;;1999.90;999.90;;;-2.50;93.90;;;;;;5057622;28;20033;-77
2023/12/08 01:08:26;;;;;;;1999.90;999.90;;;-2.40;93.80;;;;;;5071559;28;20028;-77
2023/12/08 01:10:52;;;;;;;1999.90;999.90;;;-2.50;93.80;;;;;;5075961;28;20035;-77
2023/12/08 01:13:19;;;;;;;1999.90;999.90;;;-2.70;93.60;;;;;;5075659;28;20047;-77
2023/12/08 01:15:45;;;;;;;1999.90;999.90;;;-2.60;93.90;;;;;;5071880;28;20032;-77
2023/12/08 01:18:10;;;;;;;1999.90;999.90;;;-2.70;93.90;;;;;;5084081;28;20467;-77
2023/12/08 01:20:36;;;;;;;1999.90;999.90;;;-2.50;94.00;;;;;;5054333;28;20840;-77
2023/12/08 01:23:02;;;;;;;1999.90;999.90;;;-2.60;94.20;;;;;;5074092;28;20063;-77
2023/12/08 01:25:27;;;;;;;1999.90;999.90;;;-2.50;94.20;;;;;;5075875;28;20100;-77
2023/12/08 01:27:55;;;;;;;1999.90;999.90;;;-2.60;94.20;;;;;;5072136;28;20056;-77
2023/12/08 01:30:20;;;;;;;1999.90;999.90;;;-2.50;94.30;;;;;;5106161;27;20102;-78
2023/12/08 01:32:46;;;;;;;1999.90;999.90;;;-2.40;94.20;;;;;;5069362;28;20033;-76
2023/12/08 01:35:12;;;;;;;1999.90;999.90;;;-2.40;94.20;;;;;;5072515;28;20032;-77
2023/12/08 01:37:37;;;;;;;1999.90;999.90;;;-2.30;94.10;;;;;;5071593;28;20060;-77
2023/12/08 01:40:04;;;;;;;1999.90;999.90;;;-2.20;93.80;;;;;;5051218;28;20115;-77
2023/12/08 01:42:29;;;;;;;1999.90;999.90;;;-2.30;94.00;;;;;;5070355;28;20553;-76
2023/12/08 01:44:55;;;;;;;1999.90;999.90;;;-2.30;94.00;;;;;;5068426;28;20036;-76
2023/12/08 01:47:21;;;;;;;1999.90;999.90;;;-2.30;93.90;;;;;;5069259;28;20540;-76
2023/12/08 01:49:47;;;;;;;1999.90;999.90;;;-2.40;93.80;;;;;;5068079;28;20154;-76
2023/12/08 01:52:21;;;;;;;1999.90;999.90;;;-2.20;93.80;;;;;;5068739;28;20072;-77
2023/12/08 01:54:48;;;;;;;1999.90;999.90;;;-2.50;93.60;;;;;;5069807;28;20146;-77
2023/12/08 01:57:14;;;;;;;1999.90;999.90;;;-2.40;94.00;;;;;;5069541;28;20024;-77
2023/12/08 01:59:40;;;;;;;1999.90;999.90;;;-2.60;94.30;;;;;;5052164;28;20136;-76
2023/12/08 02:02:06;;;;;;;1999.90;999.90;;;-2.50;94.40;;;;;;5068085;28;20522;-77
2023/12/08 02:04:31;;;;;;;1999.90;999.90;;;-2.40;94.10;;;;;;5072702;28;20028;-77
2023/12/08 02:06:57;;;;;;;1999.90;999.90;;;-2.40;94.20;;;;;;5066366;28;20077;-77
2023/12/08 02:09:23;;;;;;;1999.90;999.90;;;-2.30;94.30;;;;;;5068035;28;20058;-76
2023/12/08 02:11:49;;;;;;;1999.90;999.90;;;-2.20;94.20;;;;;;5068220;28;20534;-77
2023/12/08 02:14:15;;;;;;;1999.90;999.90;;;-2.40;93.90;;;;;;5055996;28;20398;-76
2023/12/08 02:17:00;;;;;;;1999.90;999.90;;;-2.60;94.10;;;;;;5069617;28;20398;-77
2023/12/08 02:19:26;;;;;;;1999.90;999.90;;;-2.50;94.00;;;;;;5071259;28;20040;-76
2023/12/08 02:21:53;;;;;;;1999.90;999.90;;;-2.50;94.00;;;;;;5073640;28;20104;-77
2023/12/08 02:24:19;;;;;;;1999.90;999.90;;;-2.60;94.30;;;;;;5073784;28;20025;-76
2023/12/08 02:26:47;;;;;;;1999.90;999.90;;;-2.60;94.30;;;;;;5066078;28;20039;-76
2023/12/08 02:29:13;;;;;;;1999.90;999.90;;;-2.80;94.80;;;;;;5068220;28;20036;-76
2023/12/08 02:31:46;;;;;;;1999.90;999.90;;;-2.60;94.90;;;;;;5072149;28;20020;-76
2023/12/08 02:34:16;;;;;;;1999.90;999.90;;;-2.60;94.30;;;;;;5073693;28;20025;-78
2023/12/08 02:36:44;;;;;;;1999.90;999.90;;;-2.40;94.40;;;;;;5075636;28;20052;-78
2023/12/08 02:39:12;;;;;;;1999.90;999.90;;;-2.30;94.20;;;;;;5073106;28;20024;-78
2023/12/08 02:41:38;;;;;;;1999.90;999.90;;;-2.30;94.60;;;;;;5072546;28;20024;-77
2023/12/08 02:44:04;;;;;;;1999.90;999.90;;;-2.30;94.30;;;;;;5070616;28;20047;-77
2023/12/08 02:46:29;;;;;;;1999.90;999.90;;;-2.20;94.00;;;;;;5053686;28;20627;-77
2023/12/08 02:48:55;;;;;;;1999.90;999.90;;;-2.30;93.90;;;;;;5072237;28;20040;-77
2023/12/08 02:51:21;;;;;;;1999.90;999.90;;;-2.40;94.10;;;;;;5056127;28;20044;-78
2023/12/08 02:53:46;;;;;;;1999.90;999.90;;;-2.50;94.00;;;;;;5073147;28;20024;-78
2023/12/08 02:56:12;;;;;;;1999.90;999.90;;;-2.50;94.30;;;;;;5073102;28;20033;-77
2023/12/08 02:58:37;;;;;;;1999.90;999.90;;;-2.40;94.60;;;;;;5072181;28;20040;-78
2023/12/08 03:01:03;;;;;;;1999.90;999.90;;;-2.30;94.60;;;;;;5068533;28;20488;-77
2023/12/08 03:03:29;;;;;;;1999.90;999.90;;;-2.30;94.50;;;;;;5072993;28;20032;-77
2023/12/08 03:05:54;;;;;;;1999.90;999.90;;;-2.40;94.50;;;;;;5069018;28;20043;-75
2023/12/08 03:08:20;;;;;;;1999.90;999.90;;;-2.30;94.50;;;;;;5071432;28;20028;-76
2023/12/08 03:10:46;;;;;;;1999.90;999.90;;;-2.10;94.40;;;;;;5052416;28;20407;-77
2023/12/08 03:13:14;;;;;;;1999.90;999.90;;;-2.20;94.10;;;;;;5068638;28;20024;-77
2023/12/08 03:15:40;;;;;;;1999.90;999.90;;;-2.30;94.20;;;;;;5071569;28;20128;-76
2023/12/08 03:18:06;;;;;;;1999.90;999.90;;;-2.30;94.30;;;;;;5053677;28;20052;-78
2023/12/08 03:20:31;;;;;;;1999.90;999.90;;;-2.40;94.30;;;;;;5075081;28;20020;-77
2023/12/08 03:22:57;;;;;;;1999.90;999.90;;;-2.20;94.60;;;;;;5072105;28;20024;-76
2023/12/08 03:25:23;;;;;;;1999.90;999.90;;;-2.00;94.60;;;;;;5073353;28;20033;-77
2023/12/08 03:27:48;;;;;;;1999.90;999.90;;;-2.20;94.10;;;;;;5068142;28;20094;-76
2023/12/08 03:30:14;;;;;;;1999.90;999.90;;;-2.00;94.50;;;;;;5071249;28;20082;-76
2023/12/08 03:32:40;;;;;;;1999.90;999.90;;;-2.00;94.20;;;;;;5068764;28;20025;-77
2023/12/08 03:35:06;;;;;;;1999.90;999.90;;;-1.90;94.30;;;;;;5074374;28;20029;-77
2023/12/08 03:37:32;;;;;;;1999.90;999.90;;;-2.20;93.90;;;;;;5072931;28;20039;-77
2023/12/08 03:39:57;;;;;;;1999.90;999.90;;;-2.00;94.40;;;;;;5070540;28;20036;-77
2023/12/08 03:42:23;;;;;;;1999.90;999.90;;;-1.90;94.30;;;;;;5070856;28;20041;-77
2023/12/08 03:44:48;;;;;;;1999.90;999.90;;;-1.80;93.70;;;;;;5071905;28;20041;-77
2023/12/08 03:47:16;;;;;;;1999.90;999.90;;;-2.00;93.80;;;;;;5069157;28;20043;-76
2023/12/08 03:49:41;;;;;;;1999.90;999.90;;;-2.30;93.30;;;;;;5070559;28;20147;-76
2023/12/08 03:52:07;;;;;;;1999.90;999.90;;;-2.30;93.90;;;;;;5070199;28;20127;-77
2023/12/08 03:54:35;;;;;;;1999.90;999.90;;;-2.30;94.10;;;;;;5070492;28;20024;-76
2023/12/08 03:57:01;;;;;;;1999.90;999.90;;;-2.30;94.10;;;;;;5068809;28;20020;-76
2023/12/08 03:59:27;;;;;;;1999.90;999.90;;;-2.10;94.70;;;;;;5073533;28;20039;-77
2023/12/08 04:01:53;;;;;;;1999.90;999.90;;;-2.30;94.60;;;;;;5074033;28;20040;-77
2023/12/08 04:04:19;;;;;;;1999.90;999.90;;;-2.30;94.50;;;;;;5072676;28;20025;-77
2023/12/08 04:06:44;;;;;;;1999.90;999.90;;;-2.20;94.50;;;;;;5076662;28;20727;-77
2023/12/08 04:09:10;;;;;;;1999.90;999.90;;;-2.20;94.80;;;;;;5075690;28;20060;-76
2023/12/08 04:11:36;;;;;;;1999.90;999.90;;;-2.10;94.80;;;;;;5078016;28;20032;-77
2023/12/08 04:14:02;;;;;;;1999.90;999.90;;;-2.20;94.50;;;;;;5070316;28;20063;-78
2023/12/08 04:16:28;;;;;;;1999.90;999.90;;;-2.10;94.50;;;;;;5075354;28;20020;-77
2023/12/08 04:18:53;;;;;;;1999.90;999.90;;;-2.10;94.10;;;;;;5105367;27;20596;-77
2023/12/08 04:21:19;;;;;;;1999.90;999.90;;;-2.30;94.10;;;;;;5076227;28;20028;-77
2023/12/08 04:23:45;;;;;;;1999.90;999.90;;;-2.30;94.40;;;;;;5073596;28;20534;-77
2023/12/08 04:26:11;;;;;;;1999.90;999.90;;;-2.30;94.30;;;;;;5076142;28;20036;-76
2023/12/08 04:28:37;;;;;;;1999.90;999.90;;;-2.40;94.40;;;;;;5067820;28;20032;-77
2023/12/08 04:31:04;;;;;;;1999.90;999.90;;;-2.30;94.60;;;;;;5072723;28;20119;-78
2023/12/08 04:33:29;;;;;;;1999.90;999.90;;;-2.40;94.70;;;;;;5070536;28;20035;-77
2023/12/08 04:35:55;;;;;;;1999.90;999.90;;;-2.20;94.90;;;;;;5071483;28;20028;-78
2023/12/08 04:38:20;;;;;;;1999.90;999.90;;;-2.00;94.90;;;;;;5074997;28;20485;-77
2023/12/08 04:40:46;;;;;;;1999.90;999.90;;;-2.20;94.50;;;;;;5070648;28;20482;-77
2023/12/08 04:43:12;;;;;;;1999.90;999.90;;;-2.00;94.70;;;;;;5073380;28;20045;-77
2023/12/08 04:45:37;;;;;;;1999.90;999.90;;;-1.90;94.40;;;;;;5071979;28;20067;-77
2023/12/08 04:48:03;;;;;;;1999.90;999.90;;;-2.00;94.40;;;;;;5072501;28;20047;-77
2023/12/08 04:50:29;;;;;;;1999.90;999.90;;;-2.00;94.30;;;;;;5087600;28;20478;-77
2023/12/08 04:52:55;;;;;;;1999.90;999.90;;;-2.00;94.20;;;;;;5073853;28;20136;-77
2023/12/08 04:55:20;;;;;;;1999.90;999.90;;;-2.00;94.30;;;;;;5070133;28;20073;-77
2023/12/08 04:57:46;;;;;;;1999.90;999.90;;;-2.00;94.40;;;;;;5056710;28;20035;-77
2023/12/08 05:00:12;;;;;;;1999.90;999.90;;;-2.10;94.00;;;;;;5068324;28;20032;-78
2023/12/08 05:02:37;;;;;;;1999.90;999.90;;;-2.10;94.50;;;;;;5072992;28;20032;-77
2023/12/08 05:05:03;;;;;;;1999.90;999.90;;;-2.00;94.50;;;;;;5081318;28;20088;-78
2023/12/08 05:07:29;;;;;;;1999.90;999.90;;;-2.00;94.50;;;;;;5071023;28;20039;-78
2023/12/08 05:09:58;;;;;;;1999.90;999.90;;;-2.00;94.60;;;;;;5047745;28;20402;-77
2023/12/08 05:12:24;;;;;;;1999.90;999.90;;;-1.90;94.70;;;;;;5066733;28;20074;-77
2023/12/08 05:14:50;;;;;;;1999.90;999.90;;;-1.80;94.50;;;;;;5072628;28;20032;-78
2023/12/08 05:17:15;;;;;;;1999.90;999.90;;;-1.90;94.20;;;;;;5070800;28;20084;-77
2023/12/08 05:19:41;;;;;;;1999.90;999.90;;;-1.90;94.40;;;;;;5059059;28;20028;-77
2023/12/08 05:22:06;;;;;;;1999.90;999.90;;;-1.90;94.30;;;;;;5068877;28;20039;-76
2023/12/08 05:24:32;;;;;;;1999.90;999.90;;;-2.00;94.10;;;;;;5073052;28;20028;-75
2023/12/08 05:26:58;;;;;;;1999.90;999.90;;;-1.90;94.20;;;;;;5068799;28;20036;-75
2023/12/08 05:29:24;;;;;;;1999.90;999.90;;;-1.90;94.20;;;;;;5074556;28;20037;-76
2023/12/08 05:31:49;;;;;;;1999.90;999.90;;;-1.90;94.30;;;;;;5067825;28;20024;-76
2023/12/08 05:34:15;;;;;;;1999.90;999.90;;;-1.90;94.50;;;;;;5069525;28;20028;-75
2023/12/08 05:36:40;;;;;;;1999.90;999.90;;;-1.90;94.60;;;;;;5051000;28;20387;-76
2023/12/08 05:39:06;;;;;;;1999.90;999.90;;;-1.90;94.70;;;;;;5065767;28;20506;-75
2023/12/08 05:41:32;;;;;;;1999.90;999.90;;;-1.90;94.60;;;;;;5071763;28;20036;-75
2023/12/08 05:43:57;;;;;;;1999.90;999.90;;;-1.80;94.80;;;;;;5086037;28;20028;-77
2023/12/08 05:46:24;;;;;;;1999.90;999.90;;;-1.80;94.70;;;;;;5071121;28;20115;-76
2023/12/08 05:48:49;;;;;;;1999.90;999.90;;;-1.80;94.50;;;;;;5068927;28;20032;-77
2023/12/08 05:51:15;;;;;;;1999.90;999.90;;;-1.80;94.40;;;;;;5070096;28;20486;-77
2023/12/08 05:53:41;;;;;;;1999.90;999.90;;;-1.90;94.30;;;;;;5050746;28;20036;-77
2023/12/08 05:56:07;;;;;;;1999.90;999.90;;;-1.90;94.60;;;;;;5069968;28;20032;-77
2023/12/08 05:58:33;;;;;;;1999.90;999.90;;;-1.90;94.60;;;;;;5074338;28;20078;-76
2023/12/08 06:00:58;;;;;;;1999.90;999.90;;;-1.80;94.70;;;;;;5051827;28;20063;-77
2023/12/08 06:03:24;;;;;;;1999.90;999.90;;;-1.80;94.60;;;;;;5067596;28;20509;-77
2023/12/08 06:05:50;;;;;;;1999.90;999.90;;;-1.80;94.60;;;;;;5071032;28;20372;-77
2023/12/08 06:08:15;;;;;;;1999.90;999.90;;;-1.80;94.60;;;;;;5070116;28;20036;-76
2023/12/08 06:10:42;;;;;;;1999.90;999.90;;;-1.70;94.60;;;;;;5072362;28;20029;-74
2023/12/08 06:13:08;;;;;;;1999.90;999.90;;;-1.80;94.40;;;;;;5097968;27;20032;-75
2023/12/08 06:15:34;;;;;;;1999.90;999.90;;;-1.70;94.60;;;;;;5069586;28;20031;-74
2023/12/08 06:17:59;;;;;;;1999.90;999.90;;;-1.70;94.50;;;;;;5068580;28;20036;-75
2023/12/08 06:20:25;;;;;;;1999.90;999.90;;;-1.60;94.60;;;;;;5067334;28;20076;-75
2023/12/08 06:22:50;;;;;;;1999.90;999.90;;;-1.50;94.80;;;;;;5068235;28;20041;-77
2023/12/08 06:25:16;;;;;;;1999.90;999.90;;;-1.50;94.70;;;;;;5068560;28;20621;-76
2023/12/08 06:27:43;;;;;;;1999.90;999.90;;;-1.40;94.80;;;;;;5069522;28;20616;-74
2023/12/08 06:30:11;;;;;;;1999.90;999.90;;;-1.40;94.60;;;;;;5073086;28;20024;-76
2023/12/08 06:32:37;;;;;;;1999.90;999.90;;;-1.30;94.80;;;;;;5072162;28;20081;-76
2023/12/08 06:35:03;;;;;;;1999.90;999.90;;;-1.30;95.00;;;;;;5069676;28;20484;-75
2023/12/08 06:37:29;;;;;;;1999.90;999.90;;;-1.30;95.10;;;;;;5072089;28;20024;-76
2023/12/08 06:39:54;;;;;;;1999.90;999.90;;;-1.30;95.10;;;;;;5069483;28;20039;-76
2023/12/08 06:42:21;;;;;;;1999.90;999.90;;;-1.20;94.80;;;;;;5071436;28;20036;-76
2023/12/08 06:44:47;;;;;;;1999.90;999.90;;;-1.20;95.30;;;;;;5067889;28;20041;-77
2023/12/08 06:47:14;;;;;;;1999.90;999.90;;;-1.20;95.30;;;;;;5076702;28;20025;-78
2023/12/08 06:49:40;;;;;;;1999.90;999.90;;;-1.20;95.40;;;;;;5070010;28;20063;-80
2023/12/08 06:52:06;;;;;;;1999.90;999.90;;;-1.00;95.80;;;;;;5085232;28;20048;-87
2023/12/08 06:54:33;;;;;;;1999.90;999.90;;;-0.90;96.10;;;;;;5093644;28;20025;-83
2023/12/08 06:56:59;;;;;;;1999.90;999.90;;;-0.80;96.10;;;;;;5090345;28;20105;-85
2023/12/08 06:59:39;;;;;;;1999.90;999.90;;;-0.80;96.20;;;;;;5072676;28;20020;-85
2023/12/08 07:02:05;;;;;;;1999.90;999.90;;;-0.70;96.30;;;;;;5085452;28;20027;-86
2023/12/08 07:04:58;;;;;;;1999.90;999.90;;;-0.70;96.30;;;;;;5086329;28;20052;-85
2023/12/08 07:07:59;;;;;;;1999.90;999.90;;;-0.60;96.40;;;;;;5089345;28;20040;-86
2023/12/08 07:10:48;;;;;;;1999.90;999.90;;;-0.50;96.50;;;;;;5079261;28;20040;-85
2023/12/08 07:13:55;;;;;;;1999.90;999.90;;;-0.50;96.40;;;;;;5035068;28;20039;-84
2023/12/08 07:16:25;;;;;;;;;;;-0.40;96.30;;;;;;5090240;28;20052;-84
2023/12/08 07:19:29;;;;;;;1999.90;999.90;;;-0.40;96.20;;;;;;5054729;28;19912;-85
2023/12/08 07:22:43;;;;;;;1999.90;999.90;;;-0.50;96.20;;;;;;5088720;28;20037;-86
2023/12/08 07:25:43;;;;;;;1999.90;999.90;;;-0.40;96.30;;;;;;5084455;28;20054;-88
2023/12/08 07:32:07;;;;;;;1999.90;999.90;;;-0.20;96.20;;;;;;5088294;28;20161;-85
2023/12/08 07:34:50;;;;;;;1999.90;999.90;;;-0.10;96.20;;;;;;5088592;28;20029;-85
2023/12/08 07:37:58;;;;;;;1999.90;999.90;;;0.00;96.10;;;;;;5071504;28;20031;-87
2023/12/08 07:40:51;;;;;;;1999.90;999.90;;;0.00;95.90;;;;;;5089176;28;20032;-84
2023/12/08 07:43:48;;;;;;;1999.90;999.90;;;0.20;95.90;;;;;;5087906;28;20051;-83
2023/12/08 07:46:19;;;;;;;1999.90;999.90;;;0.20;95.70;;;;;;5084687;28;20029;-87
2023/12/08 07:49:04;;;;;;;1999.90;999.90;;;0.30;95.60;;;;;;5086762;28;20020;-85
2023/12/08 07:51:53;;;;;;;1999.90;999.90;;;0.30;95.30;;;;;;5082746;28;20068;-87
2023/12/08 07:54:43;;;;;;;1999.90;999.90;;;0.30;95.50;;;;;;5082642;28;20029;-86
2023/12/08 07:57:43;;;;;;;1999.90;999.90;;;0.40;95.60;;;;;;5070248;28;20539;-87
2023/12/08 08:00:13;;;;;;;1999.90;999.90;;;0.40;95.40;;;;;;5083851;28;20778;-88
2023/12/08 08:02:46;;;;;;;1999.90;999.90;;;0.40;95.60;;;;;;5076530;28;20075;-86
2023/12/08 08:05:20;;;;;;;1999.90;999.90;;;0.40;95.90;;;;;;5079624;28;20502;-87
2023/12/08 08:07:51;;;;;;;1999.90;999.90;;;0.40;96.50;;;;;;5083098;28;20040;-84
2023/12/08 08:10:17;;;;;;;;;;;0.50;96.60;;;;;;5089720;28;20077;-87
2023/12/08 08:12:50;;;;;;;1999.90;999.90;;;0.50;96.90;;;;;;5086622;28;20361;-83
2023/12/08 08:15:17;;;;;;;1999.90;999.90;;;0.50;97.10;;;;;;5081615;28;20032;-83
2023/12/08 08:17:43;;;;;;;1999.90;999.90;;;0.60;97.50;;;;;;5066659;28;20048;-82
2023/12/08 08:20:09;;;;;;;1999.90;999.90;;;0.60;97.40;;;;;;5080539;28;20048;-83
2023/12/08 08:22:35;;;;;;;1999.90;999.90;;;0.60;97.70;;;;;;5084546;28;20044;-83
2023/12/08 08:25:01;;;;;;;1999.90;999.90;;;0.60;97.90;;;;;;5088095;28;20073;-81
2023/12/08 08:27:28;;;;;;;1999.90;999.90;;;0.70;98.60;;;;;;5083220;28;20029;-84
2023/12/08 08:29:54;;;;;;;1999.90;999.90;;;0.70;98.80;;;;;;5079662;28;20043;-82
2023/12/08 08:32:20;;;;;;;1999.90;999.90;;;0.70;99.00;;;;;;5080180;28;20040;-81
2023/12/08 08:34:46;;;;;;;1999.90;999.90;;;0.80;99.10;;;;;;5079844;28;20056;-82
2023/12/08 08:37:12;;;;;;;1999.90;999.90;;;0.80;99.30;;;;;;5069562;28;20090;-83
2023/12/08 08:39:38;;;;;;;1999.90;999.90;;;0.80;99.10;;;;;;5072204;28;20027;-83
2023/12/08 08:42:04;;;;;;;1999.90;999.90;;;0.90;99.60;;;;;;5057255;28;20037;-86
2023/12/08 08:44:30;;;;;;;1999.90;999.90;;;0.90;99.80;;;;;;5071418;28;20100;-82
2023/12/08 08:46:56;;;;;;;1999.90;999.90;;;1.80;99.90;;;;;;5073265;28;20115;-82
2023/12/08 08:49:22;;;;;;;1999.90;999.90;;;1.80;99.90;;;;;;5070170;28;20036;-82
2023/12/08 08:51:48;;;;;;;1999.90;999.90;;;1.70;99.90;;;;;;5075526;28;20113;-87
2023/12/08 08:54:14;;;;;;;1999.90;999.90;;;1.70;99.90;;;;;;5068885;28;20025;-84
2023/12/08 08:56:42;;;;;;;1999.90;999.90;;;2.20;99.90;;;;;;5070845;28;20043;-83
2023/12/08 08:59:11;;;;;;;1999.90;999.90;;;2.40;99.90;;;;;;5054830;28;20024;-85
2023/12/08 09:01:38;;;;;;;1999.90;999.90;;;2.30;99.90;;;;;;5070811;28;20029;-83
2023/12/08 09:04:04;;;;;;;1999.90;999.90;;;2.40;99.90;;;;;;5072377;28;20032;-85
2023/12/08 09:06:30;;;;;;;1999.90;999.90;;;2.50;99.90;;;;;;5075003;28;20052;-85
2023/12/08 09:08:56;;;;;;;1999.90;999.90;;;2.50;99.90;;;;;;5053404;28;20402;-85
2023/12/08 09:11:21;;;;;;;1999.90;999.90;;;2.50;99.90;;;;;;5055639;28;20028;-85
2023/12/08 09:13:47;;;;;;;1999.90;999.90;;;2.70;99.90;;;;;;5069637;28;20045;-88
2023/12/08 09:16:14;;;;;;;1999.90;999.90;;;2.80;99.90;;;;;;5071505;28;20627;-88
2023/12/08 09:18:40;;;;;;;1999.90;999.90;;;2.70;99.90;;;;;;5067610;28;20029;-88
2023/12/08 09:21:05;;;;;;;1999.90;999.90;;;2.90;99.90;;;;;;5070345;28;20082;-88
2023/12/08 09:23:31;;;;;;;1999.90;999.90;;;2.80;99.90;;;;;;5069653;28;20163;-87
2023/12/08 09:25:59;;;;;;;1999.90;999.90;;;2.90;99.90;;;;;;5050736;28;20838;-87
2023/12/08 09:28:25;;;;;;;1999.90;999.90;;;2.80;99.90;;;;;;5071206;28;20077;-87
2023/12/08 09:30:50;;;;;;;1999.90;999.90;;;2.70;99.90;;;;;;5071685;28;20029;-90
2023/12/08 09:33:17;;;;;;;1999.90;999.90;;;2.90;99.90;;;;;;5070327;28;20041;-90
2023/12/08 09:35:43;;;;;;;1999.90;999.90;;;2.90;99.90;;;;;;5073616;28;20558;-88
2023/12/08 09:38:08;;;;;;;1999.90;999.90;;;2.80;99.90;;;;;;5066498;28;20037;-87
2023/12/08 09:40:37;;;;;;;1999.90;999.90;;;2.70;99.90;;;;;;5071252;28;20024;-88
2023/12/08 09:43:18;;;;;;;1999.90;999.90;;;2.70;99.90;;;;;;5073392;28;20571;-86
2023/12/08 09:45:46;;;;;;;1999.90;999.90;;;2.90;99.90;;;;;;5069883;28;20028;-88
2023/12/08 09:48:14;;;;;;;1999.90;999.90;;;2.90;99.90;;;;;;5070645;28;20668;-88
2023/12/08 09:50:43;;;;;;;1999.90;999.90;;;2.90;99.90;;;;;;5054413;28;20023;-90
2023/12/08 09:53:09;;;;;;;1999.90;999.90;;;2.90;99.90;;;;;;5072174;28;20064;-86
2023/12/08 09:55:37;;;;;;;1999.90;999.90;;;3.00;99.90;;;;;;5059981;28;20374;-88
2023/12/08 09:58:03;;;;;;;1999.90;999.90;;;3.00;99.90;;;;;;5075143;28;20035;-87
2023/12/08 10:00:33;;;;;;;1999.90;999.90;;;3.00;99.90;;;;;;5078211;28;20078;-89
2023/12/08 10:03:00;;;;;;;1999.90;999.90;;;3.20;99.90;;;;;;5072829;28;20115;-89
2023/12/08 10:05:27;;;;;;;1999.90;999.90;;;3.10;99.90;;;;;;5068213;28;20101;-87
2023/12/08 10:07:54;;;;;;;1999.90;999.90;;;3.20;99.90;;;;;;5069578;28;20065;-90
2023/12/08 10:10:21;;;;;;;1999.90;999.90;;;3.10;99.90;;;;;;5070737;28;20032;-89
2023/12/08 10:12:48;;;;;;;1999.90;999.90;;;3.10;99.90;;;;;;5070814;28;20028;-88
2023/12/08 10:15:16;;;;;;;1999.90;999.90;;;3.10;99.90;;;;;;5071326;28;20039;-87
2023/12/08 10:17:52;;;;;;;1999.90;999.90;;;3.10;99.90;;;;;;5073063;28;20487;-89
2023/12/08 10:20:19;;;;;;;1999.90;999.90;;;3.20;99.90;;;;;;5072389;28;20052;-87
2023/12/08 10:22:49;;;;;;;1999.90;999.90;;;3.30;99.90;;;;;;5074322;28;20447;-88
2023/12/08 10:25:16;;;;;;;1999.90;999.90;;;3.30;99.90;;;;;;5069435;28;20060;-88
2023/12/08 10:27:48;;;;;;;1999.90;999.90;;;3.40;99.90;;;;;;5072254;28;20413;-89
2023/12/08 10:30:15;;;;;;;1999.90;999.90;;;3.20;99.90;;;;;;5069366;28;20445;-90
2023/12/08 10:32:42;;;;;;;1999.90;999.90;;;3.30;99.90;;;;;;5066351;28;20025;-89
2023/12/08 10:35:12;;;;;;;1999.90;999.90;;;3.20;99.90;;;;;;5068779;28;20032;-89
2023/12/08 10:37:42;;;;;;;1999.90;999.90;;;3.20;99.90;;;;;;5069053;28;20029;-88
2023/12/08 10:40:11;;;;;;;1999.90;999.90;;;3.30;99.90;;;;;;5066895;28;20178;-87
2023/12/08 10:42:37;;;;;;;1999.90;999.90;;;3.40;99.90;;;;;;5050393;28;20064;-87
2023/12/08 10:45:10;;;;;;;1999.90;999.90;;;3.40;99.90;;;;;;5065313;28;20077;-85
2023/12/08 10:47:40;;;;;;;1999.90;999.90;;;3.40;99.90;;;;;;5070879;28;20059;-84
2023/12/08 10:50:09;;;;;;;1999.90;999.90;;;3.50;99.90;;;;;;5067268;28;20064;-87
2023/12/08 10:52:37;;;;;;;1999.90;999.90;;;3.50;99.90;;;;;;5059302;28;20160;-90
2023/12/08 10:55:04;;;;;;;1999.90;999.90;;;3.50;99.90;;;;;;5068193;28;21487;-91
2023/12/08 10:57:30;;;;;;;1999.90;999.90;;;3.60;99.90;;;;;;5063785;28;20033;-89
2023/12/08 11:00:17;;;;;;;1999.90;999.90;;;3.60;99.90;;;;;;5064965;28;20048;-86
2023/12/08 11:02:47;;;;;;;1999.90;999.90;;;3.60;99.90;;;;;;5065231;28;20036;-87
2023/12/08 11:05:18;;;;;;;;;;;3.70;99.90;;;;;;5066257;28;20123;-88
2023/12/08 11:07:46;;;;;;;1999.90;999.90;;;3.70;99.90;;;;;;5063827;28;19919;-88
2023/12/08 11:10:14;;;;;;;1999.90;999.90;;;3.80;99.90;;;;;;5064614;28;20047;-87
2023/12/08 11:12:48;;;;;;;1999.90;999.90;;;3.80;99.90;;;;;;5066501;28;20098;-88
2023/12/08 11:15:19;;;;;;;1999.90;999.90;;;3.70;99.90;;;;;;5067508;28;20039;-89
2023/12/08 11:17:58;;;;;;;1999.90;999.90;;;3.70;99.90;;;;;;5067027;28;20032;-88
2023/12/08 11:20:24;;;;;;;1999.90;999.90;;;3.80;99.90;;;;;;5066264;28;20029;-89
2023/12/08 11:22:51;;;;;;;1999.90;999.90;;;3.80;99.90;;;;;;5069621;28;20033;-88
2023/12/08 11:25:30;;;;;;;1999.90;999.90;;;4.00;99.90;;;;;;5064424;28;20159;-87
2023/12/08 11:28:33;;;;;;;1999.90;999.90;;;4.20;99.90;;;;;;5063434;28;20082;-88
2023/12/08 11:31:13;;;;;;;1999.90;999.90;;;4.00;99.90;;;;;;5041220;28;20178;-88
2023/12/08 11:33:58;;;;;;;1999.90;999.90;;;4.10;99.90;;;;;;5064634;28;20601;-87
2023/12/08 11:36:28;;;;;;;1999.90;999.90;;;4.10;99.90;;;;;;5065264;28;20032;-87
2023/12/08 11:38:55;;;;;;;1999.90;999.90;;;4.00;99.90;;;;;;5065485;28;20062;-88
2023/12/08 11:41:25;;;;;;;1999.90;999.90;;;4.10;99.90;;;;;;5064923;28;20271;-89
2023/12/08 11:43:52;;;;;;;1999.90;999.90;;;4.10;99.90;;;;;;5064835;28;20445;-87
2023/12/08 11:46:17;;;;;;;1999.90;999.90;;;4.00;99.90;;;;;;5063602;28;20285;-88
2023/12/08 11:48:43;;;;;;;1999.90;999.90;;;4.00;99.90;;;;;;5068068;28;20032;-90
2023/12/08 11:51:10;;;;;;;1999.90;999.90;;;4.10;99.90;;;;;;5069592;28;20033;-86
2023/12/08 11:53:54;;;;;;;1999.90;999.90;;;4.00;99.90;;;;;;5067625;28;20055;-87
2023/12/08 11:56:43;;;;;;;1999.90;999.90;;;4.10;99.90;;;;;;5064532;28;20035;-87
2023/12/08 11:59:19;;;;;;;1999.90;999.90;;;4.20;99.90;;;;;;5065464;28;20082;-88
2023/12/08 12:01:47;;;;;;;1999.90;999.90;;;4.30;99.90;;;;;;5078941;28;20488;-87
2023/12/08 12:04:13;;;;;;;1999.90;999.90;;;4.50;99.90;;;;;;5061168;28;20033;-88
2023/12/08 12:06:42;;;;;;;1999.90;999.90;;;4.40;99.90;;;;;;5063282;28;20044;-88
2023/12/08 12:09:09;;;;;;;1999.90;999.90;;;4.40;99.90;;;;;;5064933;28;20083;-86
2023/12/08 12:11:37;;;;;;;1999.90;999.90;;;4.50;99.90;;;;;;5050413;28;20402;-88
2023/12/08 12:14:07;;;;;;;1999.90;999.90;;;4.50;99.90;;;;;;5067200;28;20025;-87